Тейково-2

Карта отелей и гостиниц, располагающихся рядом с аэропортом Тейково-2 :

Тейково-2 Ивановская область 56° 56' 14.91" N, 40° 23' 29.9904" E
Код аэродрома ИКАО
HH2Y
Код аэродрома RU
ХХ2Ы
Координаты
N56.93747° E040.39166°
Превышение над уровнем моря
163
Основная полоса
Курс магнитный
Длина основной ВПП
Ширина основной ВПП
Покрытие основной ВПП
Освещение ВПП
Тип: 
Вертодром
Класс аэродрома: 
Принадлежность: 
МО
Статус: 
Недействующий
Сайт: 
E-mail аэродрома: 
Страна: 
Россия
Регион: 
Ивановская область
Город: 
Дополнительная информация: 
Оператор: 54-я Гв. РД РВСН.

Найти трансфер

С помощью этой формы Вы можете найти трансфер из аэропорта Тейково-2 в город, аэропорт или вокзал:

Погода в аэропортах:

Авиационная погода в Екатеринбурге

Регион: 
Погода METAR: 
USSS 222100Z 00000MPS 1600 0050W PRFG FEW002 M22/M24 Q1030 R26L/310050 R26R/310050 NOSIG RMK QFE752/1003
Время наблюдения
2022-01-22T21:00:00Z
Температура C
-22.0
Точка росы
-24.0
Направление ветра
0
Скорость ветра (узлы)
0
Метео видимость
0.99
Облачность
FEW
Нижняя граница облачности (футы)
200
Явления погоды
PRFG
Условия полета
LIFR
Аэропорт подробнее: 
FEW – незначительная облачность;
PRFG - туман просвечивающий;

Авиационная погода в аэропорту Байкал

Регион: 
Погода METAR: 
UIUU 222100Z 00000MPS 3400 -SHSN BKN043CB M14/M16 Q1026 R08/490245 NOSIG RMK QFE724/0965
Время наблюдения
2022-01-22T21:00:00Z
Температура C
-14.0
Точка росы
-16.0
Направление ветра
0
Скорость ветра (узлы)
0
Метео видимость
2.11
Облачность
BKN
Нижняя граница облачности (футы)
4300
Явления погоды
-SHSN
Условия полета
IFR
Аэропорт подробнее: 
BKN – значительная (рассеянная, разорванная) облачность;
-SHSN - слабый ливневой снег;

Авиационная погода в Могилёве

Регион: 
Погода METAR: 
UMOO 221200Z 30005MPS 2100 -SHSN OVC030CB M04/M07 Q1007 NOSIG
Время наблюдения
2022-01-22T12:00:00Z
Температура C
-4.0
Точка росы
-7.0
Направление ветра
300
Скорость ветра (узлы)
10
Метео видимость
1.3
Облачность
OVC
Нижняя граница облачности (футы)
3000
Явления погоды
-SHSN
Условия полета
IFR
Аэропорт подробнее: 
OVC – сплошная облачность;
-SHSN - слабый ливневой снег;

Авиационная погода в Синопе

Регион: 
Погода METAR: 
LTCM 220850Z 25007KT 6000 -RA SCT014 BKN032 BKN080 02/01 Q1016
Время наблюдения
2022-01-22T08:50:00Z
Температура C
2.0
Точка росы
1.0
Направление ветра
250
Скорость ветра (узлы)
7
Метео видимость
3.73
Облачность
SCT
BKN
BKN
Нижняя граница облачности (футы)
1400
3200
8000
Явления погоды
-RA
Условия полета
MVFR
SCT – разбросанная отдельная облачность; BKN – значительная (рассеянная, разорванная) облачность;
-RA - слабый дождь;